Latest Weather Observations for Kowanyama

IDQ60801

Issued at 8:42 pm EST Thursday 13 December 2018 (issued every 10 minutes, with the page automatically refreshed every 10 minutes)

About weather observations | Map of weather stations | Latest weather observations for QLD | Other Formats
Station Details ID: 029038 Name: KOWANYAMA AIRPORT Lat: -15.48 Lon: 141.75 Height: 9.6 m
Data from the previous 72 hours. | See also: Recent months at Kowanyama
Date/Time
EST
Temp
°C
App
Temp
°C
Dew
Point
°C
Rel
Hum
%
Delta-T
°C
Wind Press
QNH
hPa
Press
MSL
hPa
Rain since
9am
mm
Dir  Spd
km/h
Gust
km/h
Spd
kts
Gust
kts
13/08:30pm 29.3 34.7 25.1 78 3.0 N 6 9 3 5 1005.9 1005.8 0.0
13/08:00pm 29.7 34.8 25.0 76 3.3 NNW 7 15 4 8 1006.0 1005.9 0.0
13/07:30pm 30.0 34.4 25.1 75 3.4 NNW 11 17 6 9 1006.0 1005.9 0.0
13/07:00pm 30.2 33.6 24.6 72 3.9 NW 15 22 8 12 1005.5 1005.4 0.0
13/06:30pm 30.7 34.1 24.1 68 4.6 NW 13 24 7 13 1005.0 1004.9 0.0
13/06:00pm 31.3 33.7 23.7 64 5.3 NW 17 28 9 15 1004.6 1004.5 0.0
13/05:30pm 32.1 34.7 23.9 62 5.7 NW 17 22 9 12 1004.5 1004.4 0.0
13/05:00pm 33.0 34.8 23.3 56 6.7 NNW 19 35 10 19 1004.4 1004.3 0.0
13/04:30pm 33.3 34.8 23.0 54 7.1 NNW 20 32 11 17 1004.2 1004.1 0.0
13/04:00pm 34.4 35.8 22.5 50 8.2 NW 19 28 10 15 1003.8 1003.7 0.0
13/03:30pm 34.6 37.0 23.6 52 7.7 NW 17 24 9 13 1003.9 1003.8 0.0
13/03:00pm 33.9 35.9 23.0 53 7.6 NW 17 24 9 13 1004.5 1004.4 0.0
13/02:30pm 33.6 36.4 23.0 54 7.3 NW 13 20 7 11 1004.8 1004.7 0.0
13/02:00pm 33.6 35.9 22.1 51 7.9 N 13 20 7 11 1005.1 1005.0 0.0
13/01:30pm 33.2 34.7 22.0 51 7.6 NW 17 28 9 15 1005.6 1005.5 0.0
13/01:00pm 33.0 35.5 22.4 53 7.3 N 13 20 7 11 1006.2 1006.1 0.0
13/12:30pm 32.6 35.1 22.4 55 7.0 NNW 13 20 7 11 1006.6 1006.5 0.0
13/12:00pm 32.5 34.7 22.6 56 6.8 N 15 24 8 13 1007.0 1006.9 0.0
13/11:30am 31.9 33.6 22.3 56 6.5 N 17 24 9 13 1007.5 1007.4 0.0
13/11:00am 32.4 36.3 23.6 59 6.1 N 9 19 5 10 1007.5 1007.4 0.0
13/10:30am 31.6 34.1 23.2 61 5.8 N 15 22 8 12 1007.7 1007.6 0.0
13/10:00am 31.1 34.0 23.2 63 5.4 N 13 20 7 11 1007.9 1007.8 0.0
13/09:30am 30.9 33.9 23.3 64 5.2 N 13 20 7 11 1007.8 1007.7 0.0
13/09:00am 29.6 31.9 22.8 67 4.6 N 15 22 8 12 1008.1 1008.0 0.0
13/08:30am 29.3 32.5 23.0 69 4.3 N 11 20 6 11 1008.0 1007.9 0.0
13/08:00am 29.0 31.8 23.0 70 4.1 N 13 20 7 11 1008.1 1008.0 0.0
13/07:30am 28.6 31.2 22.6 70 4.1 N 13 22 7 12 1008.0 1007.9 0.0
13/07:00am 27.7 31.3 23.1 76 3.1 N 9 17 5 9 1007.7 1007.6 0.0
13/06:30am 26.7 30.3 23.0 80 2.5 NNE 9 13 5 7 1007.4 1007.3 0.0
13/06:00am 26.3 30.4 23.2 83 2.1 NNE 7 11 4 6 1007.1 1007.0 0.0
13/05:30am 26.4 30.0 23.1 82 2.2 NNE 9 17 5 9 1006.6 1006.5 0.0
13/05:00am 26.6 30.2 23.1 81 2.4 N 9 15 5 8 1006.3 1006.2 0.0
13/04:30am 26.7 30.4 23.2 81 2.4 NNE 9 17 5 9 1005.9 1005.8 0.0
13/04:00am 26.7 30.0 23.2 81 2.4 NNE 11 19 6 10 1005.8 1005.7 0.0
13/03:30am 26.8 30.0 23.1 80 2.5 NNE 11 17 6 9 1005.7 1005.6 0.0
13/03:00am 27.0 29.8 23.0 79 2.7 N 13 20 7 11 1005.4 1005.3 0.0
13/02:30am 27.1 29.8 22.9 78 2.9 NNE 13 19 7 10 1005.6 1005.5 0.0
13/02:00am 27.2 30.0 23.0 78 2.9 NNE 13 19 7 10 1005.6 1005.5 0.0
13/01:30am 27.2 30.4 23.0 78 2.9 N 11 19 6 10 1005.8 1005.7 0.0
13/01:00am 26.8 30.4 23.1 80 2.5 N 9 19 5 10 1006.4 1006.3 0.0
13/12:30am 26.8 30.4 23.1 80 2.5 N 9 15 5 8 1006.4 1006.3 0.0
13/12:00am 26.8 30.8 23.1 80 2.5 NNE 7 11 4 6 1006.7 1006.6 0.0
 
Date/Time
EST
Temp
°C
App
Temp
°C
Dew
Point
°C
Rel
Hum
%
Delta-T
°C
Wind Press
QNH
hPa
Press
MSL
hPa
Rain since
9am
mm
Dir  Spd
km/h
Gust
km/h
Spd
kts
Gust
kts
12/11:30pm 26.8 30.0 23.1 80 2.5 NE 11 15 6 8 1006.9 1006.8 0.0
12/11:00pm 26.8 29.7 23.1 80 2.5 NE 13 20 7 11 1007.0 1006.9 0.0
12/10:30pm 26.8 29.9 22.8 79 2.7 NE 11 17 6 9 1007.2 1007.1 0.0
12/10:00pm 26.8 30.3 22.8 79 2.7 NE 9 15 5 8 1007.4 1007.3 0.0
12/09:30pm 26.8 30.3 22.8 79 2.7 ENE 9 13 5 7 1007.4 1007.3 0.0
12/09:00pm 26.9 30.0 22.9 79 2.7 NE 11 15 6 8 1007.6 1007.5 0.0
12/08:30pm 26.9 29.9 22.7 78 2.8 ENE 11 15 6 8 1007.3 1007.2 0.0
12/08:00pm 27.4 30.7 22.6 75 3.3 NE 9 15 5 8 1007.2 1007.1 0.0
12/07:30pm 27.4 30.6 22.4 74 3.4 NNE 9 13 5 7 1006.9 1006.8 0.0
12/07:00pm 27.6 30.3 22.8 75 3.3 NE 13 17 7 9 1006.6 1006.5 0.0
12/06:30pm 28.7 31.4 23.4 73 3.6 ENE 15 28 8 15 1006.6 1006.5 0.0
12/06:00pm 30.8 34.3 23.5 65 5.1 NNE 11 15 6 8 1005.9 1005.8 0.0
12/05:30pm 31.0 35.1 23.9 66 4.9 NNE 9 15 5 8 1005.6 1005.5 0.0
12/05:00pm 31.2 34.9 24.6 68 4.6 NNW 13 19 7 10 1005.4 1005.3 0.0
12/04:30pm 31.3 34.8 24.2 66 5.0 NW 13 22 7 12 1004.8 1004.7 0.0
12/04:00pm 31.6 34.8 23.7 63 5.5 NNW 13 19 7 10 1004.8 1004.7 0.0
12/03:30pm 32.0 35.2 22.4 57 6.6 N 9 15 5 8 1004.5 1004.4 0.0
12/03:00pm 31.1 34.0 23.2 63 5.5 NNW 13 20 7 11 1005.1 1005.0 0.0
12/02:30pm 31.1 31.8 23.7 64 5.1 NNW 26 37 14 20 1005.5 1005.4 0.0
12/02:00pm 34.9 36.9 21.6 46 9.1 N 13 19 7 10 1005.4 1005.3 0.0
12/01:30pm 34.7 37.8 22.1 48 8.6 N 9 15 5 8 1005.7 1005.6 0.0
12/01:00pm 34.3 36.4 21.7 47 8.6 N 13 20 7 11 1006.4 1006.3 0.0
12/12:30pm 33.7 34.9 21.5 49 8.3 N 17 22 9 12 1007.2 1007.1 0.0
12/12:00pm 33.7 35.5 21.8 49 8.1 NNE 15 22 8 12 1007.5 1007.4 0.0
12/11:30am 33.3 35.2 22.1 52 7.6 NNE 15 24 8 13 1007.7 1007.6 0.0
12/11:00am 32.7 34.3 22.2 54 7.2 NE 17 28 9 15 1007.8 1007.7 0.0
12/10:30am 32.6 34.6 23.0 57 6.6 NNE 17 26 9 14 1008.0 1007.9 0.0
12/10:00am 32.0 33.9 22.7 58 6.4 NNE 17 26 9 14 1008.2 1008.1 0.0
12/09:30am 31.3 35.0 23.9 64 5.1 NE 11 19 6 10 1007.9 1007.8 0.0
12/09:00am 30.3 32.2 23.5 67 4.7 ENE 19 28 10 15 1007.8 1007.7 15.2
12/08:30am 29.2 31.8 23.9 73 3.7 ENE 17 26 9 14 1007.7 1007.6 15.2
12/08:00am 28.7 31.7 24.0 76 3.3 ENE 15 22 8 12 1007.6 1007.5 15.2
12/07:30am 27.8 31.3 23.6 78 2.9 ENE 11 15 6 8 1007.5 1007.4 15.2
12/07:00am 26.9 30.8 23.6 82 2.3 ENE 9 15 5 8 1007.3 1007.2 15.2
12/06:30am 26.1 30.3 23.4 85 1.8 ENE 7 13 4 7 1006.5 1006.4 15.2
12/06:00am 25.9 29.7 23.4 86 1.7 ENE 9 15 5 8 1005.9 1005.8 15.2
12/05:30am 26.0 29.7 23.3 85 1.8 ENE 9 17 5 9 1005.5 1005.4 15.2
12/05:00am 26.1 29.8 23.2 84 2.0 NNE 9 13 5 7 1005.5 1005.4 15.2
12/04:30am 26.2 29.6 23.3 84 2.0 NE 11 20 6 11 1005.1 1005.0 15.2
12/04:00am 26.0 28.9 23.1 84 2.0 NE 13 20 7 11 1004.6 1004.5 15.2
12/03:30am 26.0 28.9 23.1 84 2.0 NE 13 17 7 9 1004.4 1004.3 15.2
12/03:00am 26.0 29.6 23.1 84 2.0 ENE 9 13 5 7 1004.8 1004.7 15.2
12/02:30am 26.2 29.8 23.1 83 2.1 ENE 9 17 5 9 1005.1 1005.0 15.2
12/02:00am 26.3 29.2 23.2 83 2.1 NE 13 19 7 10 1005.6 1005.5 15.2
12/01:30am 26.5 29.8 23.2 82 2.2 NE 11 19 6 10 1006.2 1006.1 15.2
12/01:00am 26.6 29.8 23.1 81 2.4 NE 11 20 6 11 1006.5 1006.4 15.2
12/12:30am 26.9 30.2 23.2 80 2.5 ENE 11 17 6 9 1006.9 1006.8 15.2
12/12:00am 27.2 30.4 23.0 78 2.9 ENE 11 19 6 10 1007.2 1007.1 15.2
 
Date/Time
EST
Temp
°C
App
Temp
°C
Dew
Point
°C
Rel
Hum
%
Delta-T
°C
Wind Press
QNH
hPa
Press
MSL
hPa
Rain since
9am
mm
Dir  Spd
km/h
Gust
km/h
Spd
kts
Gust
kts
11/11:30pm 27.3 30.8 22.9 77 3.0 ENE 9 17 5 9 1007.2 1007.1 15.2
11/11:00pm 27.6 30.8 23.0 76 3.1 NE 11 15 6 8 1007.4 1007.3 15.2
11/10:30pm 27.7 31.1 23.3 77 3.0 NE 11 17 6 9 1007.2 1007.1 15.2
11/10:00pm 27.9 31.3 23.3 76 3.2 NE 11 19 6 10 1006.9 1006.8 15.2
11/09:30pm 28.1 31.2 23.5 76 3.2 ENE 13 20 7 11 1006.9 1006.8 15.2
11/09:00pm 27.2 32.2 24.5 85 1.9 NE 6 9 3 5 1007.0 1006.9 15.2
11/08:30pm 27.3 32.1 24.2 83 2.1 E 6 9 3 5 1006.6 1006.5 15.2
11/08:00pm 27.0 33.0 24.3 85 1.9 CALM 0 0 0 0 1006.3 1006.2 15.2
11/07:30pm 27.4 33.3 24.1 82 2.3 CALM 0 0 0 0 1005.8 1005.7 15.2
11/07:00pm 27.7 32.1 23.5 78 2.9 E 6 7 3 4 1005.7 1005.6 15.2
11/06:30pm 27.9 32.1 23.5 77 3.0 NE 7 11 4 6 1005.4 1005.3 15.2
11/06:00pm 28.1 32.5 23.5 76 3.2 N 6 7 3 4 1005.2 1005.1 15.2
11/05:30pm 28.1 32.3 23.5 76 3.2 NNE 7 9 4 5 1005.1 1005.0 15.2
11/05:00pm 28.0 31.8 23.4 76 3.2 N 9 13 5 7 1004.9 1004.8 15.2
11/04:30pm 27.8 31.2 22.7 74 3.5 NNE 9 15 5 8 1004.4 1004.3 15.2
11/04:00pm 27.7 30.9 22.4 73 3.6 N 9 13 5 7 1004.4 1004.3 15.2
11/03:30pm 27.6 31.1 22.8 75 3.3 N 9 13 5 7 1004.2 1004.1 15.2
11/03:00pm 27.6 29.9 22.1 72 3.7 N 13 20 7 11 1004.5 1004.4 15.2
11/02:30pm 27.8 30.7 23.2 76 3.1 NNE 13 17 7 9 1004.3 1004.2 15.2
11/02:00pm 27.6 30.7 23.6 79 2.8 N 13 20 7 11 1004.7 1004.6 15.2
11/01:30pm 27.2 30.3 24.1 83 2.1 N 15 22 8 12 1005.4 1005.3 15.2
11/01:00pm 25.7 29.5 24.1 91 1.1 N 11 15 6 8 1005.6 1005.5 15.2
11/12:30pm 25.3 29.5 24.1 93 0.8 NNE 9 13 5 7 1006.0 1005.9 15.0
11/12:27pm 25.3 29.5 24.1 93 0.8 NE 9 13 5 7 1006.1 1006.0 15.0
11/12:09pm 25.3 27.7 23.7 91 1.1 N 17 28 9 15 1006.4 1006.3 14.4
11/12:00pm 25.9 29.5 24.3 91 1.1 NNW 13 22 7 12 1006.6 1006.5 12.6
11/11:56am 26.0 30.1 24.6 92 1.0 NNW 11 19 6 10 1006.6 1006.5 12.6
11/11:30am 25.7 28.1 23.6 88 1.4 N 17 32 9 17 1006.6 1006.5 9.6
11/11:21am 27.4 30.2 23.6 80 2.6 NNE 15 26 8 14 1006.2 1006.1 1.6
11/11:00am 29.8 31.6 23.5 69 4.4 ENE 20 35 11 19 1006.0 1005.9 0.0
11/10:30am 29.5 32.2 24.1 72 3.7 ENE 17 28 9 15 1006.3 1006.2 0.0
11/10:04am 28.9 31.3 24.2 76 3.3 ENE 19 26 10 14 1006.5 1006.4 0.0
11/10:00am 28.9 31.4 24.5 77 3.1 ENE 19 26 10 14 1006.6 1006.5 0.0
11/09:41am 28.3 32.1 24.7 81 2.5 E 13 26 7 14 1006.6 1006.5 0.0
11/09:30am 27.4 31.1 24.5 84 2.0 E 13 20 7 11 1006.5 1006.4 0.0
11/09:00am 27.0 31.2 24.8 88 1.5 ENE 11 15 6 8 1006.7 1006.6 68.0
11/08:55am 26.6 30.7 24.6 89 1.4 E 11 17 6 9 1006.7 1006.6 68.0
11/08:30am 25.8 28.6 23.7 88 1.4 E 15 24 8 13 1006.6 1006.5 68.0
11/08:12am 26.0 29.4 23.3 85 1.8 ENE 11 20 6 11 1006.8 1006.7 68.0
11/08:00am 26.0 29.0 23.3 85 1.8 ENE 13 19 7 10 1006.8 1006.7 68.0
11/07:30am 25.5 28.3 23.0 86 1.7 ENE 13 20 7 11 1006.4 1006.3 68.0
11/07:00am 25.1 27.4 22.8 87 1.6 ENE 15 22 8 12 1005.9 1005.8 68.0
11/06:42am 25.1 28.0 23.2 89 1.3 ENE 13 20 7 11 1005.3 1005.2 68.0
11/06:30am 24.7 27.9 23.1 91 1.1 E 11 19 6 10 1005.1 1005.0 68.0
11/06:00am 24.7 27.4 22.9 90 1.2 ENE 13 20 7 11 1004.9 1004.8 67.6
11/05:30am 24.5 27.7 23.1 92 0.9 ENE 11 17 6 9 1004.4 1004.3 67.4
11/05:00am 24.4 27.5 22.8 91 1.1 ENE 11 19 6 10 1004.0 1003.9 67.4
11/04:30am 24.5 27.2 22.9 91 1.1 ENE 13 20 7 11 1003.9 1003.8 67.4
11/04:00am 24.4 27.1 22.8 91 1.1 ENE 13 20 7 11 1003.4 1003.3 67.4
11/03:30am 24.4 26.7 22.8 91 1.1 ENE 15 24 8 13 1003.6 1003.5 67.4
11/03:00am 24.4 27.3 23.2 93 0.8 ENE 13 20 7 11 1003.6 1003.5 67.4
11/02:30am 24.4 26.9 23.2 93 0.8 ENE 15 22 8 12 1003.7 1003.6 67.4
11/02:00am 24.5 27.5 23.3 93 0.8 ENE 13 20 7 11 1003.9 1003.8 67.0
11/01:30am 24.5 26.7 23.3 93 0.8 ENE 17 26 9 14 1003.8 1003.7 67.0
11/01:00am 24.3 26.5 23.3 94 0.7 ENE 17 28 9 15 1003.8 1003.7 67.0
11/12:31am 24.3 26.2 23.4 95 0.6 ENE 19 30 10 16 1003.9 1003.8 67.0
11/12:30am 24.3 26.2 23.4 95 0.6 ENE 19 30 10 16 1003.9 1003.8 67.0
11/12:17am 24.0 26.2 23.3 96 0.5 ENE 17 26 9 14 1003.9 1003.8 66.8
11/12:00am 23.6 25.9 22.8 95 0.5 NE 15 26 8 14 1003.9 1003.8 62.4
 
Date/Time
EST
Temp
°C
App
Temp
°C
Dew
Point
°C
Rel
Hum
%
Delta-T
°C
Wind Press
QNH
hPa
Press
MSL
hPa
Rain since
9am
mm
Dir  Spd
km/h
Gust
km/h
Spd
kts
Gust
kts
10/11:59pm 23.6 25.4 22.6 94 0.7 NE 17 26 9 14 1003.9 1003.8 62.2
10/11:30pm 24.2 25.8 23.3 95 0.6 NNE 20 35 11 19 1003.0 1002.9 54.4
10/11:13pm 24.5 28.1 23.8 96 0.5 NNE 11 17 6 9 1002.8 1002.7 49.4
10/11:11pm 24.4 28.0 23.7 96 0.5 NNE 11 15 6 8 1002.7 1002.6 48.8
10/11:00pm 24.5 28.8 23.6 95 0.6 N 7 11 4 6 1002.4 1002.3 48.2
10/10:58pm 24.5 28.8 23.6 95 0.6 NNW 7 11 4 6 1002.3 1002.2 48.2
10/10:55pm 24.5 28.8 23.6 95 0.6 NNW 7 9 4 5 1002.3 1002.2 47.8
10/10:30pm 24.3 27.7 23.4 95 0.6 WSW 11 17 6 9 1002.0 1001.9 46.0
10/10:00pm 24.5 27.3 23.6 95 0.6 SW 15 24 8 13 1002.4 1002.3 44.0
10/09:30pm 24.7 26.6 23.7 94 0.7 SW 20 30 11 16 1002.7 1002.6 42.8
10/09:00pm 24.8 26.4 23.8 94 0.7 W 22 33 12 18 1002.7 1002.6 38.6
10/08:46pm 25.0 26.6 23.8 93 0.8 W 22 33 12 18 1002.8 1002.7 36.0
10/08:45pm 25.0 26.6 23.8 93 0.8 W 22 30 12 16 1002.8 1002.7 36.0

Other Formats:

Comma delimited format used in spreadsheet applications
http://www.bom.gov.au/fwo/IDQ60801/IDQ60801.94268.axf

JavaScript Object Notation format (JSON) in row-major order
http://www.bom.gov.au/fwo/IDQ60801/IDQ60801.94268.json